Time;durP1;ratioP1;P1;durP2;ratioP2;P2;SDS_P1;SDS_P2;PMS_P1;PMS_P2;Temp;Humidity;BMP_temperature;BMP_pressure;BME280_temperature;BME280_humidity;BME280_pressure;Samples;Min_cycle;Max_cycle;Signal;HPM_P1;HPM_P2
2022/09/08 00:02:24;;;;;;;1.60;1.50;;;25.20;43.70;;;;;;6207577;23;20415;-75
2022/09/08 00:04:50;;;;;;;1.60;1.50;;;25.20;43.70;;;;;;6203160;23;20210;-75
2022/09/08 00:07:16;;;;;;;1.40;1.30;;;25.20;43.70;;;;;;6206572;23;20793;-74
2022/09/08 00:09:42;;;;;;;1.60;1.50;;;25.20;43.70;;;;;;6204220;23;20200;-75
2022/09/08 00:12:08;;;;;;;1.67;1.57;;;25.20;43.70;;;;;;6204323;23;20451;-75
2022/09/08 00:14:34;;;;;;;1.83;1.73;;;25.20;43.70;;;;;;6202382;23;20198;-75
2022/09/08 00:17:01;;;;;;;1.70;1.60;;;25.20;43.70;;;;;;6207734;23;20506;-75
2022/09/08 00:19:27;;;;;;;1.80;1.70;;;25.20;43.70;;;;;;6206508;23;20735;-73
2022/09/08 00:21:53;;;;;;;1.70;1.60;;;25.20;43.70;;;;;;6207635;23;20419;-73
2022/09/08 00:24:18;;;;;;;1.60;1.50;;;25.20;43.70;;;;;;6207842;23;20198;-72
2022/09/08 00:26:44;;;;;;;1.80;1.70;;;25.20;43.70;;;;;;6208176;23;20426;-75
2022/09/08 00:29:09;;;;;;;1.67;1.57;;;25.20;43.70;;;;;;6206934;23;20281;-73
2022/09/08 00:31:39;;;;;;;1.77;1.67;;;25.20;43.70;;;;;;6205367;23;20539;-75
2022/09/08 00:34:05;;;;;;;1.70;1.60;;;25.20;43.70;;;;;;6205336;23;20205;-74
2022/09/08 00:36:31;;;;;;;1.60;1.50;;;25.20;43.70;;;;;;6203741;23;20424;-75
2022/09/08 00:38:58;;;;;;;1.80;1.70;;;25.20;43.70;;;;;;6206168;23;20431;-75
2022/09/08 00:41:24;;;;;;;1.90;1.80;;;25.20;43.70;;;;;;6206828;23;20190;-76
2022/09/08 00:43:58;;;;;;;1.80;1.67;;;25.20;43.70;;;;;;6201087;23;20804;-75
2022/09/08 00:46:32;;;;;;;1.60;1.50;;;25.10;43.60;;;;;;6205853;23;20471;-73
2022/09/08 00:49:04;;;;;;;1.87;1.77;;;25.20;43.70;;;;;;6203080;23;20423;-75
2022/09/08 00:51:31;;;;;;;1.90;1.80;;;25.10;43.60;;;;;;6204614;23;20403;-75
2022/09/08 00:53:58;;;;;;;1.77;1.67;;;25.20;43.80;;;;;;6200787;23;20423;-75
2022/09/08 00:56:26;;;;;;;1.57;1.47;;;25.20;43.70;;;;;;6159905;23;20742;-75
2022/09/08 00:58:53;;;;;;;2.13;1.80;;;25.10;43.60;;;;;;6175271;23;20911;-74
2022/09/08 01:01:19;;;;;;;1.80;1.70;;;25.20;43.70;;;;;;6181827;23;20880;-72
2022/09/08 01:03:45;;;;;;;1.87;1.70;;;25.20;43.70;;;;;;6188733;23;20408;-76
2022/09/08 01:12:44;;;;;;;1.70;1.60;;;25.10;43.60;;;;;;6174204;23;20515;-75
2022/09/08 01:15:18;;;;;;;1.73;1.63;;;25.10;43.60;;;;;;6173904;23;20490;-72
2022/09/08 01:17:45;;;;;;;1.87;1.77;;;25.10;43.60;;;;;;6182155;23;20418;-75
2022/09/08 01:20:11;;;;;;;1.60;1.50;;;25.10;43.60;;;;;;6177547;23;20435;-75
2022/09/08 01:22:51;;;;;;;1.60;1.50;;;25.10;43.60;;;;;;6176296;23;20954;-74
2022/09/08 01:25:43;;;;;;;1.90;1.80;;;25.10;43.60;;;;;;6175045;23;20415;-75
2022/09/08 01:28:29;;;;;;;2.13;2.03;;;25.10;43.60;;;;;;6175917;23;20413;-75
2022/09/08 01:30:55;;;;;;;1.90;1.80;;;25.10;43.60;;;;;;6196692;23;20407;-74
2022/09/08 01:33:21;;;;;;;1.83;1.73;;;25.10;43.60;;;;;;6188114;23;20532;-75
2022/09/08 01:35:48;;;;;;;1.70;1.60;;;25.10;43.70;;;;;;6188368;23;20205;-75
2022/09/08 01:38:14;;;;;;;2.00;1.90;;;25.10;43.60;;;;;;6185828;23;20408;-75
2022/09/08 01:40:39;;;;;;;1.63;1.53;;;25.10;43.60;;;;;;6179926;23;20428;-72
2022/09/08 01:43:07;;;;;;;1.70;1.60;;;25.10;43.60;;;;;;6192442;23;20202;-75
2022/09/08 01:45:34;;;;;;;1.70;1.60;;;25.10;43.60;;;;;;6186930;23;20247;-76
2022/09/08 01:48:00;;;;;;;1.90;1.80;;;25.10;43.60;;;;;;6189934;23;20918;-72
2022/09/08 01:50:25;;;;;;;1.50;1.40;;;25.10;43.60;;;;;;6177235;23;20428;-75
2022/09/08 01:52:51;;;;;;;1.97;1.87;;;25.10;43.60;;;;;;6192080;23;20201;-76
2022/09/08 01:55:17;;;;;;;1.63;1.53;;;25.10;43.60;;;;;;6208414;23;20660;-74
2022/09/08 01:57:43;;;;;;;1.70;1.60;;;25.10;43.60;;;;;;6180310;23;20269;-75
2022/09/08 02:00:10;;;;;;;1.97;1.87;;;25.10;43.60;;;;;;6175610;23;20421;-75
2022/09/08 02:02:35;;;;;;;1.80;1.70;;;25.10;43.60;;;;;;6177167;23;20892;-76
2022/09/08 02:05:01;;;;;;;1.80;1.70;;;25.10;43.60;;;;;;6194741;23;20432;-75
2022/09/08 02:07:27;;;;;;;1.50;1.40;;;25.10;43.60;;;;;;6175736;23;20198;-72
2022/09/08 02:09:53;;;;;;;1.83;1.47;;;25.10;43.60;;;;;;6189056;23;20193;-75
2022/09/08 02:12:19;;;;;;;1.80;1.70;;;25.10;43.60;;;;;;6190882;23;20575;-75
2022/09/08 02:14:45;;;;;;;2.00;1.90;;;25.10;43.60;;;;;;6181283;23;20268;-75
2022/09/08 02:17:11;;;;;;;1.60;1.50;;;25.10;43.60;;;;;;6182976;23;20475;-72
2022/09/08 02:19:37;;;;;;;1.80;1.70;;;25.10;43.60;;;;;;6171120;23;20225;-75
2022/09/08 02:22:03;;;;;;;1.80;1.70;;;25.10;43.60;;;;;;6173198;23;20416;-70
2022/09/08 02:24:29;;;;;;;1.87;1.77;;;25.10;43.60;;;;;;6175962;23;20198;-70
2022/09/08 02:26:55;;;;;;;2.00;1.90;;;25.10;43.60;;;;;;6181631;23;20695;-70
2022/09/08 02:29:21;;;;;;;1.60;1.50;;;25.10;43.60;;;;;;6186511;23;20965;-70
2022/09/08 02:31:47;;;;;;;1.60;1.50;;;25.10;43.60;;;;;;6163743;23;20770;-71
2022/09/08 02:34:13;;;;;;;1.60;1.50;;;25.10;43.60;;;;;;6190180;23;20416;-70
2022/09/08 02:36:38;;;;;;;1.80;1.70;;;25.10;43.60;;;;;;6181236;23;20217;-70
2022/09/08 02:39:04;;;;;;;1.87;1.77;;;25.10;43.60;;;;;;6187239;23;20253;-69
2022/09/08 02:41:30;;;;;;;1.97;1.77;;;25.10;43.60;;;;;;6173264;23;20186;-70
2022/09/08 02:43:56;;;;;;;1.80;1.70;;;25.10;43.60;;;;;;6171946;23;20210;-70
2022/09/08 02:46:22;;;;;;;1.97;1.87;;;25.10;43.60;;;;;;6178356;23;20561;-70
2022/09/08 02:48:48;;;;;;;1.70;1.60;;;25.10;43.60;;;;;;6184667;23;20416;-70
2022/09/08 02:51:18;;;;;;;1.40;1.30;;;25.10;43.60;;;;;;6187046;23;20940;-70
2022/09/08 02:53:43;;;;;;;1.50;1.40;;;25.10;43.60;;;;;;6171297;23;20189;-70
2022/09/08 02:56:09;;;;;;;1.70;1.60;;;25.10;43.60;;;;;;6204890;23;21009;-70
2022/09/08 02:58:36;;;;;;;2.00;1.90;;;25.10;43.60;;;;;;6202854;23;20189;-68
2022/09/08 03:01:03;;;;;;;1.63;1.53;;;25.10;43.60;;;;;;6177448;23;20914;-69
2022/09/08 03:03:29;;;;;;;2.30;1.63;;;25.10;43.60;;;;;;6197642;23;20910;-68
2022/09/08 03:05:55;;;;;;;1.77;1.67;;;25.10;43.60;;;;;;6192698;23;20419;-69
2022/09/08 03:08:21;;;;;;;1.80;1.70;;;25.10;43.60;;;;;;6206282;23;20203;-70
2022/09/08 03:10:50;;;;;;;1.70;1.60;;;25.10;43.60;;;;;;6197148;23;20634;-68
2022/09/08 03:13:17;;;;;;;2.00;1.67;;;25.10;43.60;;;;;;6182845;23;20489;-69
2022/09/08 03:15:43;;;;;;;1.97;1.87;;;25.10;43.60;;;;;;6174384;23;20416;-68
2022/09/08 03:18:09;;;;;;;1.60;1.50;;;25.10;43.60;;;;;;6170211;23;20423;-69
2022/09/08 03:20:37;;;;;;;2.00;1.90;;;25.10;43.60;;;;;;6205308;23;20442;-68
2022/09/08 03:23:03;;;;;;;1.67;1.57;;;25.10;43.60;;;;;;6170561;23;20256;-68
2022/09/08 03:25:30;;;;;;;1.93;1.83;;;25.10;43.60;;;;;;6205595;23;20753;-69
2022/09/08 03:27:56;;;;;;;1.60;1.50;;;25.10;43.60;;;;;;6185815;23;20424;-68
2022/09/08 03:30:22;;;;;;;2.30;1.70;;;25.10;43.60;;;;;;6176943;23;21237;-68
2022/09/08 03:32:48;;;;;;;1.60;1.50;;;25.10;43.60;;;;;;6162101;23;20419;-69
2022/09/08 03:35:17;;;;;;;1.70;1.60;;;25.10;43.70;;;;;;6196059;23;20749;-68
2022/09/08 03:37:44;;;;;;;1.57;1.47;;;25.10;43.60;;;;;;6171689;23;20436;-68
2022/09/08 03:40:12;;;;;;;1.60;1.50;;;25.10;43.60;;;;;;6182074;23;20432;-68
2022/09/08 03:42:40;;;;;;;1.60;1.50;;;25.10;43.60;;;;;;6178589;23;20749;-68
2022/09/08 03:45:12;;;;;;;2.00;1.90;;;25.10;43.60;;;;;;6169808;23;20423;-68
2022/09/08 03:47:38;;;;;;;1.53;1.43;;;25.10;44.40;;;;;;6174503;23;20416;-68
2022/09/08 03:50:05;;;;;;;1.77;1.67;;;25.10;43.60;;;;;;6181206;23;20480;-68
2022/09/08 03:52:31;;;;;;;2.20;2.00;;;25.10;43.60;;;;;;6186884;23;20255;-68
2022/09/08 03:54:57;;;;;;;2.03;1.60;;;25.10;43.60;;;;;;6198531;23;20415;-69
2022/09/08 03:57:26;;;;;;;1.70;1.60;;;25.10;43.60;;;;;;6178613;23;20217;-69
2022/09/08 03:59:53;;;;;;;1.97;1.87;;;25.10;43.60;;;;;;6188635;23;20431;-69
2022/09/08 04:02:20;;;;;;;1.70;1.60;;;25.10;43.60;;;;;;6159282;23;20419;-70
2022/09/08 04:04:50;;;;;;;2.10;2.00;;;25.10;43.60;;;;;;6179121;23;20538;-68
2022/09/08 04:07:18;;;;;;;1.60;1.50;;;25.10;43.60;;;;;;6178278;23;20423;-68
2022/09/08 04:09:44;;;;;;;1.60;1.50;;;25.10;43.60;;;;;;6174655;23;20475;-68
2022/09/08 04:12:10;;;;;;;1.80;1.70;;;25.10;43.60;;;;;;6153804;23;20428;-69
2022/09/08 04:14:37;;;;;;;1.67;1.57;;;25.10;43.60;;;;;;6203366;23;20248;-69
2022/09/08 04:17:03;;;;;;;1.80;1.70;;;25.10;43.60;;;;;;6205388;23;20423;-68
2022/09/08 04:19:28;;;;;;;1.60;1.50;;;25.10;43.60;;;;;;6202529;23;20449;-69
2022/09/08 04:21:54;;;;;;;1.83;1.73;;;25.10;43.60;;;;;;6184893;23;20202;-69
2022/09/08 04:24:20;;;;;;;2.83;1.77;;;25.10;43.60;;;;;;6196251;23;20701;-69
2022/09/08 04:26:46;;;;;;;1.80;1.70;;;25.10;43.60;;;;;;6206618;23;20440;-68
2022/09/08 04:29:13;;;;;;;1.50;1.40;;;25.10;43.60;;;;;;6197898;23;20281;-69
2022/09/08 04:31:38;;;;;;;1.70;1.60;;;25.10;43.60;;;;;;6187192;23;20420;-69
2022/09/08 04:34:05;;;;;;;1.87;1.53;;;25.20;43.70;;;;;;6153752;23;20421;-68
2022/09/08 04:36:31;;;;;;;1.80;1.70;;;25.20;43.70;;;;;;6198969;23;20272;-69
2022/09/08 04:38:58;;;;;;;1.60;1.50;;;25.20;43.70;;;;;;6189979;23;20937;-69
2022/09/08 04:41:27;;;;;;;1.70;1.60;;;25.20;43.70;;;;;;6173525;23;20408;-68
2022/09/08 04:43:54;;;;;;;1.80;1.70;;;25.20;43.80;;;;;;6206145;23;20486;-69
2022/09/08 04:46:20;;;;;;;1.93;1.53;;;25.20;43.70;;;;;;6188774;23;20404;-67
2022/09/08 04:48:47;;;;;;;3.03;1.70;;;25.20;43.70;;;;;;6183405;23;20879;-68
2022/09/08 04:51:16;;;;;;;1.70;1.60;;;25.20;43.70;;;;;;6178429;23;20876;-68
2022/09/08 04:53:42;;;;;;;1.80;1.70;;;25.20;43.70;;;;;;6169208;23;20417;-70
2022/09/08 04:56:08;;;;;;;2.00;1.90;;;25.30;43.80;;;;;;6193412;23;20455;-70
2022/09/08 04:58:37;;;;;;;1.50;1.40;;;25.20;43.70;;;;;;6192919;23;20420;-69
2022/09/08 05:01:07;;;;;;;1.70;1.60;;;25.20;43.70;;;;;;6200986;23;20481;-69
2022/09/08 05:03:33;;;;;;;2.43;1.60;;;25.20;43.70;;;;;;6203291;23;20417;-70
2022/09/08 05:06:07;;;;;;;1.77;1.67;;;25.30;43.80;;;;;;6144619;23;20761;-69
2022/09/08 05:08:33;;;;;;;1.63;1.53;;;25.20;43.70;;;;;;6163679;23;20420;-69
2022/09/08 05:11:00;;;;;;;1.73;1.57;;;25.20;43.70;;;;;;6169890;23;20429;-69
2022/09/08 05:13:25;;;;;;;1.53;1.43;;;25.20;43.70;;;;;;6171595;23;20895;-70
2022/09/08 05:15:51;;;;;;;1.67;1.40;;;25.30;43.80;;;;;;6155816;23;20411;-68
2022/09/08 05:18:17;;;;;;;1.83;1.73;;;25.30;44.60;;;;;;6186878;23;20197;-68
2022/09/08 05:20:43;;;;;;;2.40;1.60;;;25.30;43.80;;;;;;6200959;23;20547;-68
2022/09/08 05:23:09;;;;;;;1.60;1.50;;;25.20;43.70;;;;;;6194369;23;20424;-69
2022/09/08 05:25:34;;;;;;;1.77;1.67;;;25.30;43.80;;;;;;6180927;23;20484;-68
2022/09/08 05:28:01;;;;;;;1.50;1.40;;;25.30;43.80;;;;;;6167063;23;20226;-69
2022/09/08 05:30:27;;;;;;;1.70;1.60;;;25.30;43.80;;;;;;6185321;23;20205;-67
2022/09/08 05:32:53;;;;;;;1.60;1.50;;;25.30;44.60;;;;;;6173980;23;20732;-69
2022/09/08 05:35:19;;;;;;;1.50;1.40;;;25.30;43.80;;;;;;6193588;23;20195;-69
2022/09/08 05:37:44;;;;;;;2.43;1.50;;;25.30;43.80;;;;;;6172974;23;20215;-69
2022/09/08 05:40:11;;;;;;;2.70;1.50;;;25.30;43.80;;;;;;6152898;23;20328;-69
2022/09/08 05:42:36;;;;;;;3.00;1.40;;;25.30;43.80;;;;;;6178347;23;20201;-69
2022/09/08 05:45:02;;;;;;;1.60;1.50;;;25.30;43.80;;;;;;6189132;23;20484;-69
2022/09/08 05:47:28;;;;;;;1.60;1.50;;;25.30;43.80;;;;;;6198563;23;20197;-69
2022/09/08 05:49:54;;;;;;;1.90;1.63;;;25.30;43.80;;;;;;6175751;23;20209;-69
2022/09/08 05:52:20;;;;;;;1.40;1.30;;;25.30;43.80;;;;;;6179912;23;20732;-69
2022/09/08 05:54:45;;;;;;;1.50;1.40;;;25.30;43.80;;;;;;6170920;23;20202;-69
2022/09/08 05:57:14;;;;;;;2.37;1.47;;;25.30;43.80;;;;;;6171286;23;20205;-69
2022/09/08 05:59:40;;;;;;;1.67;1.57;;;25.30;43.80;;;;;;6187306;23;20604;-69
2022/09/08 06:02:07;;;;;;;1.67;1.57;;;25.30;43.80;;;;;;6178023;23;20420;-69
2022/09/08 06:04:33;;;;;;;1.87;1.77;;;25.30;43.80;;;;;;6175923;23;20408;-69
2022/09/08 06:06:59;;;;;;;1.97;1.87;;;25.30;43.80;;;;;;6173038;23;20515;-69
2022/09/08 06:09:25;;;;;;;1.70;1.60;;;25.30;43.80;;;;;;6165401;23;20837;-67
2022/09/08 06:11:51;;;;;;;1.40;1.30;;;25.30;43.80;;;;;;6156203;23;20931;-67
2022/09/08 06:14:16;;;;;;;1.30;1.20;;;25.30;43.80;;;;;;6180600;23;20207;-69
2022/09/08 06:16:42;;;;;;;1.50;1.40;;;25.30;43.80;;;;;;6150596;23;20284;-69
2022/09/08 06:19:09;;;;;;;1.30;1.20;;;25.30;43.80;;;;;;6154518;23;20207;-69
2022/09/08 06:21:35;;;;;;;1.30;1.20;;;25.30;43.80;;;;;;6158628;23;20527;-70
2022/09/08 06:24:04;;;;;;;1.53;1.43;;;25.30;43.80;;;;;;6137530;23;20468;-69
2022/09/08 06:26:45;;;;;;;1.60;1.50;;;25.30;43.80;;;;;;6143945;23;20440;-69
2022/09/08 06:29:30;;;;;;;4.80;1.20;;;25.30;43.80;;;;;;6165115;23;20764;-69
2022/09/08 06:32:27;;;;;;;1.53;1.43;;;25.30;43.80;;;;;;6155456;23;20755;-69
2022/09/08 06:35:00;;;;;;;1.57;1.40;;;25.30;43.80;;;;;;6094646;23;20931;-69
2022/09/08 06:37:48;;;;;;;1.60;1.50;;;25.30;43.80;;;;;;6151906;23;20408;-69
2022/09/08 06:40:17;;;;;;;1.50;1.40;;;25.30;43.80;;;;;;6152699;23;21058;-69
2022/09/08 06:42:53;;;;;;;1.70;1.60;;;25.30;43.80;;;;;;6158944;23;20419;-69
2022/09/08 06:45:29;;;;;;;1.37;1.27;;;25.30;43.80;;;;;;6155767;23;20420;-69
2022/09/08 06:48:11;;;;;;;1.60;1.50;;;25.20;43.70;;;;;;6161943;23;20854;-69
2022/09/08 06:50:44;;;;;;;1.60;1.50;;;25.30;43.80;;;;;;6159288;23;20431;-69
2022/09/08 06:53:17;;;;;;;1.50;1.40;;;25.30;43.80;;;;;;6146692;23;20484;-69
2022/09/08 06:55:52;;;;;;;1.50;1.40;;;25.30;43.80;;;;;;6159553;23;20420;-69
2022/09/08 06:58:29;;;;;;;1.60;1.50;;;25.30;43.80;;;;;;6157119;23;20911;-69
2022/09/08 07:01:06;;;;;;;2.50;1.47;;;25.30;43.80;;;;;;6155226;23;20435;-69
2022/09/08 07:03:43;;;;;;;1.93;1.40;;;25.20;43.70;;;;;;6153788;23;20458;-69
2022/09/08 07:06:10;;;;;;;1.60;1.27;;;25.30;43.80;;;;;;6149436;23;21043;-69
2022/09/08 07:08:44;;;;;;;1.60;1.50;;;25.20;43.70;;;;;;6161891;23;20923;-69
2022/09/08 07:11:20;;;;;;;1.70;1.50;;;25.30;43.80;;;;;;6170414;23;20950;-69
2022/09/08 07:14:01;;;;;;;1.50;1.40;;;25.20;43.70;;;;;;6159295;23;20510;-69
2022/09/08 07:16:41;;;;;;;2.30;1.60;;;25.20;43.70;;;;;;6158229;23;20424;-69
2022/09/08 07:19:25;;;;;;;1.70;1.60;;;25.30;43.80;;;;;;6178356;23;20470;-69
2022/09/08 07:22:02;;;;;;;1.20;1.10;;;25.30;43.80;;;;;;6167908;23;20435;-69
2022/09/08 07:24:36;;;;;;;1.57;1.47;;;25.30;43.80;;;;;;6179080;23;20546;-69
2022/09/08 07:27:10;;;;;;;1.97;1.43;;;25.20;43.70;;;;;;6202834;23;20461;-69
2022/09/08 07:29:45;;;;;;;1.30;1.20;;;25.30;43.80;;;;;;6198677;23;20886;-69
2022/09/08 07:32:26;;;;;;;1.97;1.77;;;25.30;43.80;;;;;;6196070;23;20409;-69
2022/09/08 07:35:05;;;;;;;1.50;1.40;;;25.20;43.80;;;;;;6168710;23;20472;-69
2022/09/08 07:37:47;;;;;;;1.53;1.43;;;25.20;43.70;;;;;;6181699;23;20421;-70
2022/09/08 07:40:19;;;;;;;1.60;1.50;;;25.20;43.70;;;;;;6198477;23;20430;-70
2022/09/08 07:42:52;;;;;;;1.57;1.47;;;25.20;43.70;;;;;;6200826;23;20522;-69
2022/09/08 07:45:18;;;;;;;2.03;1.37;;;25.30;43.80;;;;;;6183316;23;20414;-69
2022/09/08 07:48:11;;;;;;;1.40;1.30;;;25.20;43.80;;;;;;6162179;23;20424;-69
2022/09/08 07:50:56;;;;;;;1.30;1.20;;;25.30;43.80;;;;;;6114519;23;20209;-69
2022/09/08 07:53:47;;;;;;;1.30;1.20;;;25.30;43.80;;;;;;6170634;23;20733;-69
2022/09/08 07:56:17;;;;;;;1.10;1.00;;;25.20;43.70;;;;;;6169487;23;20420;-69
2022/09/08 07:59:08;;;;;;;1.50;1.40;;;25.20;43.70;;;;;;6171235;23;20454;-69
2022/09/08 08:01:59;;;;;;;1.30;1.20;;;25.20;43.70;;;;;;6182297;23;20427;-69
2022/09/08 08:04:45;;;;;;;1.40;1.30;;;25.20;43.70;;;;;;6172412;23;20727;-70
2022/09/08 08:07:16;;;;;;;1.30;1.20;;;25.20;43.70;;;;;;6176487;23;20428;-70
2022/09/08 08:09:54;;;;;;;1.40;1.30;;;25.20;43.70;;;;;;6170237;23;20435;-69
2022/09/08 08:12:52;;;;;;;1.57;1.10;;;25.20;43.70;;;;;;6153102;23;20494;-71
2022/09/08 08:15:24;;;;;;;1.40;1.30;;;25.30;43.80;;;;;;6167503;23;20423;-72
2022/09/08 08:17:57;;;;;;;1.40;1.30;;;25.20;43.70;;;;;;6198042;23;20434;-72
2022/09/08 08:20:51;;;;;;;1.20;1.10;;;25.20;43.70;;;;;;6156729;23;20470;-69
2022/09/08 08:24:01;;;;;;;1.47;1.30;;;25.20;43.70;;;;;;6201935;23;20411;-72
2022/09/08 08:26:53;;;;;;;1.40;1.30;;;25.20;43.70;;;;;;6137165;23;20458;-70
2022/09/08 08:29:48;;;;;;;1.40;1.30;;;25.20;43.70;;;;;;6180377;23;20404;-71
2022/09/08 08:32:27;;;;;;;1.20;1.10;;;25.20;43.70;;;;;;6199895;23;20486;-71
2022/09/08 08:34:58;;;;;;;0.90;0.90;;;25.20;43.70;;;;;;6194735;23;20410;-72
2022/09/08 08:37:29;;;;;;;1.20;1.10;;;25.20;43.70;;;;;;6188860;23;20730;-71
2022/09/08 08:39:55;;;;;;;3.13;1.87;;;25.20;43.70;;;;;;6175853;23;20432;-71
2022/09/08 08:42:24;;;;;;;1.53;1.30;;;25.20;43.70;;;;;;6181603;23;20446;-72
2022/09/08 08:45:07;;;;;;;1.47;1.20;;;25.20;43.70;;;;;;6184739;23;20408;-72
2022/09/08 08:48:22;;;;;;;2.20;1.20;;;25.20;43.70;;;;;;6202905;23;20487;-72
2022/09/08 08:50:59;;;;;;;1.30;1.20;;;25.20;43.70;;;;;;6138288;23;20967;-72
2022/09/08 08:53:51;;;;;;;1.70;1.13;;;25.20;43.70;;;;;;6176101;23;20408;-71
2022/09/08 08:56:30;;;;;;;2.70;1.50;;;25.20;43.70;;;;;;6202150;23;20416;-71
2022/09/08 08:58:58;;;;;;;1.20;1.10;;;25.20;43.70;;;;;;6199008;23;20419;-71
2022/09/08 09:01:37;;;;;;;1.50;1.20;;;25.20;43.70;;;;;;6202041;23;20750;-71
2022/09/08 09:04:25;;;;;;;0.97;0.97;;;25.20;43.70;;;;;;6203029;23;20407;-70
2022/09/08 09:07:15;;;;;;;1.27;1.17;;;25.20;43.70;;;;;;6201465;23;21252;-71
2022/09/08 09:10:06;;;;;;;1.07;0.90;;;25.20;43.70;;;;;;6199533;23;20391;-71
2022/09/08 09:13:07;;;;;;;1.10;1.00;;;25.20;43.70;;;;;;6201376;23;20407;-72
2022/09/08 09:15:59;;;;;;;1.67;1.00;;;25.20;43.70;;;;;;6197134;23;20430;-70
2022/09/08 09:18:53;;;;;;;1.53;1.00;;;25.20;43.70;;;;;;6170179;23;20485;-71
2022/09/08 09:21:41;;;;;;;1.30;1.07;;;25.20;43.80;;;;;;6181817;23;20489;-71
2022/09/08 09:24:22;;;;;;;1.30;1.10;;;25.20;43.70;;;;;;6171921;23;20452;-72
2022/09/08 09:26:50;;;;;;;1.10;1.00;;;25.20;43.70;;;;;;6194278;23;21313;-71
2022/09/08 09:29:24;;;;;;;1.23;1.13;;;25.20;43.70;;;;;;6193340;23;20419;-71
2022/09/08 09:32:29;;;;;;;1.07;1.00;;;25.20;43.70;;;;;;6199552;23;20427;-72
2022/09/08 09:35:34;;;;;;;1.10;1.00;;;25.20;43.70;;;;;;6187527;23;20427;-72
2022/09/08 09:38:39;;;;;;;2.30;1.00;;;25.20;43.70;;;;;;6180465;23;20427;-72
2022/09/08 09:41:23;;;;;;;2.33;1.07;;;25.20;43.70;;;;;;6189289;23;20519;-72
2022/09/08 09:44:18;;;;;;;1.80;1.70;;;25.20;43.60;;;;;;6169302;23;20440;-72
2022/09/08 09:46:52;;;;;;;0.80;0.80;;;25.20;43.00;;;;;;6167637;23;20419;-71
2022/09/08 09:50:15;;;;;;;1.63;0.93;;;25.20;42.80;;;;;;6122804;23;20801;-66
2022/09/08 09:52:52;;;;;;;1.10;1.00;;;25.20;42.60;;;;;;6175603;23;26030;-60
2022/09/08 09:55:56;;;;;;;0.97;0.90;;;25.20;42.50;;;;;;6171730;23;20436;-62
2022/09/08 09:58:55;;;;;;;1.20;0.87;;;25.20;42.40;;;;;;6173229;23;20404;-63
2022/09/08 10:01:38;;;;;;;1.00;0.90;;;25.20;42.30;;;;;;6130050;23;20423;-63
2022/09/08 10:04:07;;;;;;;1.07;0.97;;;25.20;42.30;;;;;;6171742;23;20434;-60
2022/09/08 10:06:52;;;;;;;1.33;1.00;;;25.20;42.20;;;;;;6187869;23;20422;-63
2022/09/08 10:09:57;;;;;;;1.00;0.90;;;25.20;42.10;;;;;;6190034;23;20423;-62
2022/09/08 10:12:50;;;;;;;0.87;0.87;;;25.20;42.10;;;;;;6156773;23;20957;-65
2022/09/08 10:15:37;;;;;;;1.00;0.70;;;25.20;42.10;;;;;;6167057;23;20413;-62
2022/09/08 10:18:20;;;;;;;1.63;0.87;;;25.20;42.00;;;;;;6178435;23;20949;-63
2022/09/08 10:20:48;;;;;;;3.03;0.90;;;25.20;42.00;;;;;;6143306;23;20430;-62
2022/09/08 10:23:32;;;;;;;1.20;1.07;;;25.20;41.90;;;;;;6171798;23;20415;-64
2022/09/08 10:26:29;;;;;;;1.93;1.40;;;25.20;41.70;;;;;;6171149;23;20593;-61
2022/09/08 10:29:17;;;;;;;1.73;0.80;;;25.20;41.60;;;;;;6192800;23;20926;-62
2022/09/08 10:32:23;;;;;;;0.80;0.80;;;25.10;41.20;;;;;;6154672;23;20425;-61
2022/09/08 10:34:59;;;;;;;2.80;1.30;;;25.20;41.30;;;;;;6195224;23;20421;-63
2022/09/08 10:38:00;;;;;;;2.97;1.70;;;25.20;41.20;;;;;;6183524;23;20466;-61
2022/09/08 10:40:35;;;;;;;0.80;0.80;;;25.20;41.10;;;;;;6168668;23;20923;-61
2022/09/08 10:43:36;;;;;;;1.00;0.90;;;25.10;40.70;;;;;;6167894;23;20423;-62
2022/09/08 10:46:40;;;;;;;1.03;0.90;;;25.10;40.70;;;;;;6185920;23;20419;-65
2022/09/08 10:49:26;;;;;;;1.00;0.70;;;25.20;40.70;;;;;;6168958;23;20493;-63
2022/09/08 10:52:29;;;;;;;1.07;0.97;;;25.10;40.40;;;;;;6199611;23;20946;-65
2022/09/08 10:55:27;;;;;;;1.43;0.97;;;25.10;40.40;;;;;;6175134;23;20424;-64
2022/09/08 10:58:49;;;;;;;2.30;0.80;;;25.10;40.40;;;;;;6176110;23;20429;-63
2022/09/08 11:01:52;;;;;;;1.10;1.00;;;25.10;40.50;;;;;;6149290;23;20473;-61
2022/09/08 11:04:51;;;;;;;1.03;0.87;;;25.10;40.40;;;;;;6180102;23;20460;-63
2022/09/08 11:07:51;;;;;;;2.03;1.10;;;25.10;40.30;;;;;;6201317;23;20411;-63
2022/09/08 11:10:40;;;;;;;1.00;0.87;;;25.10;40.20;;;;;;6151995;23;20783;-63
2022/09/08 11:13:25;;;;;;;0.93;0.87;;;25.10;40.20;;;;;;6176163;23;20890;-65
2022/09/08 11:16:12;;;;;;;1.30;0.90;;;25.10;40.10;;;;;;6170860;23;20475;-63
2022/09/08 11:18:44;;;;;;;0.80;0.80;;;25.10;40.00;;;;;;6198521;23;20419;-62
2022/09/08 11:21:29;;;;;;;1.83;0.90;;;25.10;39.90;;;;;;6181210;23;20806;-62
2022/09/08 11:24:22;;;;;;;1.00;0.90;;;25.10;39.80;;;;;;6185117;23;20423;-62
2022/09/08 11:27:22;;;;;;;1.60;0.90;;;25.10;39.80;;;;;;6170850;23;20412;-61
2022/09/08 11:30:10;;;;;;;2.93;1.63;;;25.10;39.80;;;;;;6174673;23;20558;-65
2022/09/08 11:32:44;;;;;;;0.93;0.83;;;25.10;39.70;;;;;;6197290;23;20426;-63
2022/09/08 11:35:44;;;;;;;1.00;0.90;;;25.10;39.50;;;;;;6197134;23;20414;-62
2022/09/08 11:38:29;;;;;;;0.80;0.80;;;25.10;39.60;;;;;;6195176;23;20786;-61
2022/09/08 11:40:59;;;;;;;0.90;0.80;;;25.10;39.50;;;;;;6181075;23;20510;-64
2022/09/08 11:43:29;;;;;;;1.03;0.90;;;25.10;39.20;;;;;;6169657;23;20739;-63
2022/09/08 11:46:37;;;;;;;0.90;0.80;;;25.10;39.80;;;;;;6195885;23;20752;-67
2022/09/08 11:49:11;;;;;;;0.73;0.73;;;25.10;38.90;;;;;;6133280;23;20522;-65
2022/09/08 11:51:56;;;;;;;1.27;0.77;;;25.10;39.00;;;;;;6167697;23;20482;-62
2022/09/08 11:54:43;;;;;;;1.20;0.77;;;25.10;39.10;;;;;;6175602;23;20416;-65
2022/09/08 11:57:30;;;;;;;1.50;1.00;;;25.10;39.00;;;;;;6165715;23;20428;-63
2022/09/08 12:00:03;;;;;;;1.10;1.00;;;25.10;39.00;;;;;;6162236;23;20533;-64
2022/09/08 12:03:10;;;;;;;1.00;0.90;;;25.10;38.80;;;;;;6166792;23;20448;-61
2022/09/08 12:05:54;;;;;;;1.20;1.10;;;25.10;38.90;;;;;;6162034;23;20733;-61
2022/09/08 12:08:54;;;;;;;0.90;0.90;;;25.10;38.90;;;;;;6168053;23;20468;-59
2022/09/08 12:11:27;;;;;;;0.97;0.90;;;25.10;38.80;;;;;;6193240;23;20418;-62
2022/09/08 12:14:05;;;;;;;0.80;0.80;;;25.10;38.60;;;;;;6201056;23;20415;-63
2022/09/08 12:16:45;;;;;;;1.57;0.80;;;25.10;38.60;;;;;;6197397;23;20446;-64
2022/09/08 12:19:26;;;;;;;0.97;0.90;;;25.10;38.50;;;;;;6172838;23;20711;-60
2022/09/08 12:22:10;;;;;;;0.90;0.90;;;25.10;38.30;;;;;;6193182;23;20419;-63
2022/09/08 12:24:54;;;;;;;0.90;0.80;;;25.10;38.20;;;;;;6194478;23;20651;-63
2022/09/08 12:27:50;;;;;;;0.80;0.70;;;25.10;38.10;;;;;;6181044;23;20742;-60
2022/09/08 12:30:20;;;;;;;1.00;0.90;;;25.10;38.10;;;;;;6186764;23;20993;-64
2022/09/08 12:33:04;;;;;;;1.13;0.90;;;25.10;38.10;;;;;;6167139;23;20490;-61
2022/09/08 12:35:47;;;;;;;2.50;0.77;;;25.10;38.10;;;;;;6191372;23;20480;-64
2022/09/08 12:38:25;;;;;;;0.90;0.80;;;25.10;38.10;;;;;;6197973;23;20416;-64
2022/09/08 12:41:12;;;;;;;1.33;0.87;;;25.10;38.10;;;;;;6197893;23;20430;-61
2022/09/08 12:43:42;;;;;;;1.27;1.17;;;25.10;38.10;;;;;;6166413;23;20506;-60
2022/09/08 12:46:26;;;;;;;0.80;0.80;;;25.10;38.20;;;;;;6174792;23;20412;-61
2022/09/08 12:49:28;;;;;;;1.17;0.80;;;25.10;38.10;;;;;;6191512;23;20913;-62
2022/09/08 12:52:02;;;;;;;1.60;0.80;;;25.10;38.10;;;;;;6178910;23;20502;-61
2022/09/08 12:54:40;;;;;;;1.70;1.03;;;25.10;38.10;;;;;;6153392;23;20420;-60
2022/09/08 12:57:41;;;;;;;1.00;0.90;;;25.10;38.10;;;;;;6171332;23;20956;-63
2022/09/08 13:00:11;;;;;;;4.83;1.00;;;25.10;38.30;;;;;;6193083;23;20431;-61
2022/09/08 13:03:08;;;;;;;1.00;0.90;;;25.10;38.30;;;;;;6192186;23;20416;-64
2022/09/08 13:05:43;;;;;;;2.97;1.17;;;25.10;38.40;;;;;;6160910;23;20594;-62
2022/09/08 13:08:27;;;;;;;1.00;0.90;;;25.10;38.40;;;;;;6160567;23;20523;-62
2022/09/08 13:11:01;;;;;;;1.90;1.27;;;25.10;38.20;;;;;;6183527;23;20420;-64
2022/09/08 13:13:30;;;;;;;4.60;1.10;;;25.10;38.30;;;;;;6175482;23;20412;-60
2022/09/08 13:16:16;;;;;;;1.10;0.90;;;25.10;38.30;;;;;;6162605;23;20420;-61
2022/09/08 13:19:09;;;;;;;1.13;0.90;;;25.10;38.40;;;;;;6142281;23;20412;-62
2022/09/08 13:21:53;;;;;;;1.90;1.40;;;25.10;38.40;;;;;;6190327;23;21198;-62
2022/09/08 13:25:04;;;;;;;0.97;0.80;;;25.10;38.40;;;;;;6198341;23;20438;-62
2022/09/08 13:27:51;;;;;;;1.40;1.10;;;25.10;38.50;;;;;;6153779;23;20412;-61
2022/09/08 13:30:27;;;;;;;1.17;1.00;;;25.10;38.40;;;;;;6180635;23;20412;-61
2022/09/08 13:33:21;;;;;;;1.13;0.80;;;25.10;38.30;;;;;;6166996;23;21205;-61
2022/09/08 13:36:28;;;;;;;0.87;0.80;;;25.10;38.20;;;;;;6164349;23;20416;-62
2022/09/08 13:39:08;;;;;;;1.23;0.90;;;25.10;38.10;;;;;;6178996;23;20489;-61
2022/09/08 13:42:09;;;;;;;3.23;0.80;;;25.10;38.20;;;;;;6171760;23;20436;-60